createdAt,value
2019-06-26T13:29:24.883Z,38.63
2019-06-26T13:32:41.698Z,38.55
2019-06-26T13:35:58.389Z,38.31
2019-06-26T13:39:15.137Z,38.35
2019-06-26T13:42:31.757Z,38.37
2019-06-26T13:45:48.615Z,38.35
2019-06-26T13:49:06.841Z,38.30
2019-06-26T13:52:24.506Z,38.59
2019-06-26T13:55:41.340Z,38.49
2019-06-26T13:58:58.090Z,38.52
2019-06-26T14:02:15.511Z,38.26
2019-06-26T14:05:32.075Z,38.10
2019-06-26T14:08:48.861Z,38.31
2019-06-26T14:12:05.489Z,38.08
2019-06-26T14:15:22.532Z,38.27
2019-06-26T14:18:39.157Z,38.16
2019-06-26T14:21:57.414Z,37.92
2019-06-26T14:25:14.249Z,37.85
2019-06-26T14:28:33.918Z,37.77
2019-06-26T14:31:51.221Z,37.82
2019-06-26T14:35:07.875Z,37.66
2019-06-26T14:38:24.792Z,37.86
2019-06-26T14:41:42.203Z,37.96
2019-06-26T14:44:59.032Z,38.09
2019-06-26T14:48:15.947Z,37.75
2019-06-26T14:51:43.817Z,37.82
2019-06-26T14:54:51.037Z,38.10
2019-06-26T14:58:07.670Z,37.71
2019-06-26T15:01:24.367Z,37.83
2019-06-26T15:04:41.034Z,37.48
2019-06-26T15:07:57.793Z,37.69
2019-06-26T15:11:15.601Z,38.04
2019-06-26T15:14:32.522Z,38.22
2019-06-26T15:17:49.211Z,38.16
2019-06-26T15:21:06.788Z,38.48
2019-06-26T15:24:27.685Z,38.00
2019-06-26T15:27:45.165Z,37.77
2019-06-26T15:31:02.250Z,38.21
2019-06-26T15:34:18.904Z,37.74
2019-06-26T15:37:37.694Z,37.15
2019-06-26T15:40:56.094Z,36.89
2019-06-26T15:44:14.736Z,36.93
2019-06-26T15:47:32.444Z,36.90
2019-06-26T15:50:49.066Z,36.90
2019-06-26T15:54:05.865Z,37.27
2019-06-26T15:57:23.283Z,37.47
2019-06-26T16:00:39.900Z,37.30
2019-06-26T16:04:01.492Z,37.42
2019-06-26T16:07:18.186Z,37.50
2019-06-26T16:10:35.224Z,37.60
2019-06-26T16:13:52.508Z,37.74
2019-06-26T16:17:13.887Z,37.78
2019-06-26T16:20:30.724Z,37.42
2019-06-26T16:23:47.345Z,37.45
2019-06-26T16:27:05.667Z,37.32
2019-06-26T16:30:23.045Z,37.49
2019-06-26T16:33:39.836Z,37.57
2019-06-26T16:36:56.557Z,37.38
2019-06-26T16:40:16.182Z,37.06
2019-06-26T16:43:27.598Z,36.81
2019-06-26T16:46:44.223Z,36.87
2019-06-26T16:50:03.552Z,37.03
2019-06-26T16:53:20.283Z,36.95
2019-06-26T16:56:37.161Z,37.10
2019-06-26T17:00:08.397Z,37.05
2019-06-26T17:03:13.224Z,36.92
2019-06-26T17:06:29.870Z,36.74
2019-06-26T17:09:46.707Z,36.68
2019-06-26T17:13:06.413Z,36.24
2019-06-26T17:16:16.929Z,35.93
2019-06-26T17:19:37.194Z,35.93
2019-06-26T17:23:05.153Z,35.78
2019-06-26T17:26:13.514Z,35.64
2019-06-26T17:29:30.641Z,35.51
2019-06-26T17:32:47.450Z,35.28
2019-06-26T17:36:05.393Z,35.18
2019-06-26T17:39:22.369Z,35.02
2019-06-26T17:42:43.133Z,34.82
2019-06-26T17:46:01.269Z,34.70
2019-06-26T17:49:21.121Z,34.47
2019-06-26T17:52:34.501Z,34.39
2019-06-26T17:55:49.704Z,34.12
2019-06-26T17:59:10.004Z,33.98
2019-06-26T18:02:27.951Z,34.05
2019-06-26T18:05:45.147Z,34.01
2019-06-26T18:09:02.087Z,34.08
2019-06-26T18:12:19.267Z,33.95
2019-06-26T18:15:37.355Z,33.89
2019-06-26T18:18:54.167Z,33.76
2019-06-26T18:22:10.761Z,33.69
2019-06-26T18:25:28.293Z,33.58
2019-06-26T18:28:45.020Z,33.51
2019-06-26T18:32:01.736Z,33.40
2019-06-26T18:35:20.154Z,33.25
2019-06-26T18:38:36.903Z,33.19
2019-06-26T18:41:54.263Z,33.10
2019-06-26T18:45:11.611Z,32.98
2019-06-26T18:48:28.288Z,32.81
2019-06-26T18:51:45.179Z,32.70
2019-06-26T18:55:03.457Z,32.60
2019-06-26T18:58:26.049Z,32.51
2019-06-26T19:01:42.826Z,32.39
2019-06-26T19:04:59.480Z,32.33
2019-06-26T19:08:16.224Z,32.24
2019-06-26T19:11:33.747Z,32.17
2019-06-26T19:14:50.762Z,31.93
2019-06-26T19:18:09.993Z,31.84
2019-06-26T19:21:26.805Z,31.75
2019-06-26T19:24:43.839Z,31.72
2019-06-26T19:28:00.555Z,31.60
2019-06-26T19:31:17.410Z,31.53
